createdAt,value
2023-01-02T00:20:26.032Z,36.13
2023-01-02T00:43:24.966Z,27.92
2023-01-02T00:47:24.827Z,28.85
2023-01-02T00:51:24.637Z,26.68
2023-01-02T00:52:24.574Z,25.69
2023-01-02T00:53:24.557Z,29.15
2023-01-02T00:54:24.508Z,29.87
2023-01-02T00:55:24.442Z,28.79
2023-01-02T00:56:24.400Z,27.26
2023-01-02T00:57:24.350Z,29.40
2023-01-02T00:58:24.318Z,30.04
2023-01-02T00:59:24.280Z,29.10
2023-01-02T01:00:24.598Z,27.36
2023-01-02T01:01:24.345Z,28.08
2023-01-02T01:02:24.226Z,29.48
2023-01-02T01:03:24.098Z,29.53
2023-01-02T01:04:24.032Z,26.52
2023-01-02T01:05:23.981Z,26.97
2023-01-02T01:06:23.930Z,27.14
2023-01-02T01:07:23.930Z,27.30
2023-01-02T01:08:23.842Z,28.01
2023-01-02T01:09:23.796Z,27.89
2023-01-02T01:10:23.752Z,29.39
2023-01-02T01:11:23.712Z,28.07
2023-01-02T01:12:23.653Z,27.07
2023-01-02T01:13:23.625Z,27.97
2023-01-02T01:14:23.564Z,28.13
2023-01-02T01:15:23.516Z,30.63
2023-01-02T01:16:23.513Z,29.02
2023-01-02T01:17:23.441Z,28.05
2023-01-02T01:18:23.385Z,25.93
2023-01-02T01:19:23.351Z,25.86
2023-01-02T01:20:23.304Z,28.58
2023-01-02T01:21:23.257Z,27.79
2023-01-02T01:22:23.207Z,27.55
2023-01-02T01:23:23.190Z,28.35
2023-01-02T01:24:23.114Z,27.29
2023-01-02T01:25:23.083Z,28.25
2023-01-02T01:26:23.022Z,28.95
2023-01-02T01:27:23.024Z,29.40
2023-01-02T01:28:23.494Z,30.10
2023-01-02T01:29:22.913Z,29.48
2023-01-02T01:30:23.484Z,28.39
2023-01-02T01:31:22.903Z,25.95
2023-01-02T01:32:22.768Z,27.06
2023-01-02T01:33:22.722Z,27.27
2023-01-02T01:34:23.136Z,27.38
2023-01-02T01:35:22.639Z,25.60
2023-01-02T01:36:22.617Z,28.83
2023-01-02T01:37:22.550Z,27.30
2023-01-02T01:38:22.508Z,27.63
2023-01-02T01:39:22.455Z,26.73
2023-01-02T01:40:22.415Z,26.70
2023-01-02T01:41:22.380Z,28.08
2023-01-02T01:42:22.327Z,28.18
2023-01-02T01:43:22.281Z,30.48
2023-01-02T01:44:22.235Z,28.75
2023-01-02T01:45:22.190Z,30.70
2023-01-02T01:46:22.158Z,30.27
2023-01-02T01:47:22.120Z,29.66
2023-01-02T01:48:22.054Z,31.36
2023-01-02T01:49:22.033Z,30.23
2023-01-02T01:50:21.969Z,30.75
2023-01-02T01:51:21.925Z,33.75
2023-01-02T01:52:21.881Z,33.35
2023-01-02T01:53:21.827Z,30.43
2023-01-02T01:54:22.232Z,34.82
2023-01-02T01:55:21.751Z,33.44
2023-01-02T01:56:21.698Z,32.73
2023-01-02T01:57:21.651Z,32.95
2023-01-02T01:58:21.624Z,33.64
2023-01-02T01:59:22.069Z,32.50
2023-01-02T02:00:21.519Z,30.38
2023-01-02T02:01:21.537Z,31.64
2023-01-02T02:02:21.477Z,32.23
2023-01-02T02:03:21.405Z,30.26
2023-01-02T02:04:21.321Z,31.41
2023-01-02T02:05:21.300Z,30.88
2023-01-02T02:06:21.220Z,32.35
2023-01-02T02:07:21.199Z,32.41
2023-01-02T02:08:22.015Z,31.00
2023-01-02T02:09:22.026Z,30.79
2023-01-02T02:10:21.512Z,29.28
2023-01-02T02:11:21.093Z,28.90
2023-01-02T02:12:27.736Z,28.89
2023-01-02T02:13:21.913Z,29.06
2023-01-02T02:14:20.860Z,29.38
2023-01-02T02:15:20.803Z,27.21
2023-01-02T02:16:20.796Z,26.07
2023-01-02T02:17:20.723Z,28.46
2023-01-02T02:18:20.660Z,28.62
2023-01-02T02:19:20.646Z,26.22
2023-01-02T02:20:20.572Z,26.35
2023-01-02T02:21:20.531Z,24.11
2023-01-02T02:22:20.500Z,27.35
2023-01-02T02:23:20.448Z,25.81
2023-01-02T02:24:20.378Z,26.65
2023-01-02T02:25:20.335Z,25.00
2023-01-02T02:26:20.278Z,28.35
2023-01-02T02:27:20.233Z,29.47
2023-01-02T02:28:20.177Z,28.42
2023-01-02T02:29:20.140Z,28.10
2023-01-02T02:30:20.098Z,28.22
2023-01-02T02:31:20.116Z,29.90
2023-01-02T02:32:19.985Z,34.38
2023-01-02T02:33:19.949Z,34.40
2023-01-02T02:34:19.883Z,31.39
2023-01-02T02:35:19.848Z,31.19
2023-01-02T02:36:19.785Z,34.39
2023-01-02T02:37:19.737Z,31.93
2023-01-02T02:38:19.750Z,32.23
2023-01-02T02:39:19.654Z,32.35
2023-01-02T02:40:19.599Z,29.00
2023-01-02T02:41:19.566Z,29.89
2023-01-02T02:42:19.506Z,35.11
2023-01-02T02:43:19.483Z,32.83
2023-01-02T02:44:19.409Z,32.95
2023-01-02T02:45:19.386Z,33.18
2023-01-02T02:46:19.350Z,33.13
2023-01-02T02:47:19.270Z,33.15
2023-01-02T02:48:19.231Z,33.48
2023-01-02T02:49:19.216Z,33.82
2023-01-02T02:50:19.141Z,34.59
2023-01-02T02:51:19.083Z,36.03
2023-01-02T02:52:19.035Z,36.43
2023-01-02T02:53:18.999Z,36.34
2023-01-02T02:54:18.965Z,35.41
2023-01-02T02:55:19.020Z,36.21
2023-01-02T03:40:16.720Z,39.82
2023-01-02T03:42:16.601Z,41.01
2023-01-02T03:43:16.555Z,41.36
2023-01-02T03:44:16.513Z,41.83
2023-01-02T03:45:16.531Z,41.05
2023-01-02T03:46:16.467Z,40.94
2023-01-02T03:47:16.354Z,42.12
2023-01-02T03:48:16.305Z,41.88
2023-01-02T03:49:16.261Z,39.41
2023-01-02T03:50:16.203Z,40.03
2023-01-02T03:51:16.161Z,41.83
2023-01-02T03:52:19.804Z,43.12
2023-01-02T03:53:17.049Z,43.20
2023-01-02T03:54:15.986Z,42.58
2023-01-02T03:55:15.936Z,43.10
2023-01-02T03:56:15.895Z,43.15
2023-01-02T03:57:15.823Z,42.39
2023-01-02T03:58:15.790Z,40.34
2023-01-02T03:59:15.732Z,42.28
2023-01-02T04:00:15.662Z,42.54
2023-01-02T04:01:15.698Z,43.98
2023-01-02T04:02:15.761Z,41.03
2023-01-02T04:03:15.566Z,45.27
2023-01-02T04:04:15.452Z,41.38
2023-01-02T04:05:15.401Z,41.37
2023-01-02T04:06:15.381Z,41.93
2023-01-02T04:07:15.310Z,42.45
2023-01-02T04:08:15.227Z,43.60
2023-01-02T04:09:15.181Z,43.71
2023-01-02T04:10:15.139Z,41.77
2023-01-02T04:11:15.076Z,43.29
2023-01-02T04:12:15.029Z,43.45
2023-01-02T04:13:15.547Z,43.52
2023-01-02T04:14:14.927Z,44.10
2023-01-02T04:15:14.871Z,43.41
2023-01-02T04:16:14.827Z,44.90
2023-01-02T04:17:14.765Z,43.59
2023-01-02T04:18:14.696Z,46.42
2023-01-02T04:19:14.634Z,46.46
2023-01-02T04:20:14.590Z,44.85
2023-01-02T04:21:14.532Z,43.77
2023-01-02T04:22:14.471Z,46.47
2023-01-02T04:23:14.428Z,46.50
2023-01-02T04:24:14.353Z,44.28
2023-01-02T04:25:14.296Z,42.00
2023-01-02T04:26:14.250Z,45.82
2023-01-02T04:27:14.195Z,40.07
2023-01-02T04:28:14.191Z,45.91
2023-01-02T04:29:14.103Z,42.13
2023-01-02T04:30:14.033Z,40.37
2023-01-02T04:31:14.016Z,43.84
2023-01-02T04:32:13.921Z,43.67
2023-01-02T04:33:13.903Z,41.71
2023-01-02T04:34:13.828Z,41.82
2023-01-02T04:35:13.777Z,40.42
2023-01-02T04:36:13.720Z,40.61
2023-01-02T04:37:14.514Z,40.11
2023-01-02T04:38:13.624Z,37.14
2023-01-02T04:39:13.679Z,41.76
2023-01-02T04:40:13.647Z,38.62
2023-01-02T04:41:13.439Z,39.03
2023-01-02T04:42:13.393Z,36.97
2023-01-02T04:43:13.333Z,38.59
2023-01-02T04:44:13.267Z,34.62
2023-01-02T04:45:13.221Z,35.20
2023-01-02T04:46:13.204Z,33.61
2023-01-02T04:47:18.255Z,33.77
2023-01-02T04:48:14.060Z,33.71
2023-01-02T04:49:13.012Z,33.50
2023-01-02T04:50:12.986Z,31.14
2023-01-02T04:51:12.901Z,31.91
2023-01-02T04:52:12.844Z,32.80
2023-01-02T04:53:12.801Z,30.09
2023-01-02T04:54:12.787Z,28.98
2023-01-02T04:55:13.730Z,29.64
2023-01-02T04:56:12.640Z,27.14
2023-01-02T04:57:12.621Z,29.66
2023-01-02T04:58:12.539Z,28.80
2023-01-02T04:59:12.476Z,28.17
2023-01-02T05:00:12.414Z,28.22
2023-01-02T05:01:12.447Z,26.67
2023-01-02T05:02:12.736Z,24.69
2023-01-02T05:03:12.259Z,22.75
2023-01-02T05:04:12.184Z,27.25
2023-01-02T05:05:12.210Z,26.16
2023-01-02T05:06:12.078Z,24.77
2023-01-02T05:07:12.028Z,25.07
2023-01-02T05:08:16.146Z,22.38
2023-01-02T05:09:11.896Z,26.68
2023-01-02T05:10:11.839Z,22.60
2023-01-02T05:11:11.787Z,21.26
2023-01-02T05:12:11.746Z,27.02
2023-01-02T05:13:11.679Z,20.78
2023-01-02T05:14:11.706Z,21.55
2023-01-02T05:15:11.581Z,20.25
2023-01-02T05:16:11.722Z,18.83
2023-01-02T05:17:11.459Z,26.14
2023-01-02T05:18:11.408Z,25.02
2023-01-02T05:19:11.343Z,25.13
2023-01-02T05:20:11.296Z,25.01
2023-01-02T05:21:13.064Z,25.05
2023-01-02T05:22:11.268Z,23.61
2023-01-02T05:23:11.217Z,23.41
2023-01-02T05:24:11.363Z,25.00
2023-01-02T05:25:11.040Z,24.97
2023-01-02T05:26:10.989Z,28.75
2023-01-02T05:27:10.921Z,28.03
2023-01-02T05:28:10.886Z,27.93
2023-01-02T05:29:10.803Z,25.68
2023-01-02T05:30:10.786Z,28.81
2023-01-02T05:31:10.758Z,28.36
2023-01-02T05:32:10.639Z,26.80
2023-01-02T05:33:10.609Z,25.00
2023-01-02T05:34:10.562Z,25.15
2023-01-02T05:35:10.498Z,25.63
2023-01-02T05:36:10.448Z,25.42
2023-01-02T05:37:10.388Z,26.56
2023-01-02T05:38:10.356Z,24.08
2023-01-02T05:39:10.276Z,25.88
2023-01-02T05:40:10.231Z,28.42
2023-01-02T05:41:10.183Z,28.18
2023-01-02T05:42:10.121Z,27.75
2023-01-02T05:43:10.074Z,26.94
2023-01-02T05:44:10.019Z,30.90
2023-01-02T05:45:10.023Z,29.84
2023-01-02T05:46:10.030Z,29.03
2023-01-02T05:47:14.885Z,27.02
2023-01-02T05:48:10.811Z,27.18
2023-01-02T05:49:09.735Z,27.64
2023-01-02T05:50:09.704Z,28.41
2023-01-02T05:51:09.631Z,29.08
2023-01-02T05:52:09.584Z,29.81
2023-01-02T05:53:09.544Z,32.72
2023-01-02T05:54:09.468Z,32.77
2023-01-02T05:55:09.400Z,32.43
2023-01-02T05:56:09.356Z,29.94
2023-01-02T05:57:09.297Z,32.40
2023-01-02T05:58:09.270Z,27.26
2023-01-02T05:59:09.207Z,32.76
2023-01-02T06:00:09.153Z,32.10
2023-01-02T06:01:09.097Z,27.37
2023-01-02T06:02:09.245Z,29.52
2023-01-02T06:03:09.045Z,29.21
2023-01-02T06:07:09.594Z,27.64
2023-01-02T06:15:09.089Z,25.68
2023-01-02T07:30:04.223Z,28.85
2023-01-02T07:31:04.144Z,29.87
2023-01-02T07:32:04.105Z,25.06
2023-01-02T07:33:04.102Z,28.19
2023-01-02T07:34:03.970Z,29.32
2023-01-02T07:35:03.914Z,26.62
2023-01-02T07:36:03.853Z,26.11
2023-01-02T07:37:03.798Z,27.71
2023-01-02T07:38:03.819Z,26.89
2023-01-02T07:39:03.659Z,29.70
2023-01-02T07:40:03.637Z,26.64
2023-01-02T07:41:03.570Z,27.59
2023-01-02T07:42:03.519Z,29.08
2023-01-02T07:43:03.458Z,29.82
2023-01-02T07:44:03.406Z,30.06
2023-01-02T07:45:03.327Z,28.31
2023-01-02T07:46:03.335Z,28.18
2023-01-02T07:47:03.227Z,29.77
2023-01-02T07:48:03.167Z,30.94
2023-01-02T07:49:03.111Z,29.93
2023-01-02T07:50:03.068Z,28.90
2023-01-02T07:51:03.009Z,29.36
2023-01-02T07:52:02.952Z,27.78
2023-01-02T07:53:02.906Z,29.58
2023-01-02T07:54:02.837Z,28.44
2023-01-02T07:55:03.127Z,28.55
2023-01-02T07:56:02.728Z,27.13
2023-01-02T07:57:02.658Z,30.51
2023-01-02T07:58:02.617Z,26.81
2023-01-02T07:59:02.529Z,31.63
2023-01-02T08:00:02.482Z,27.27
2023-01-02T08:01:05.705Z,30.00
2023-01-02T08:02:02.459Z,30.02
2023-01-02T08:03:02.310Z,27.92
2023-01-02T08:05:02.189Z,26.14
2023-01-02T08:06:02.131Z,28.20
2023-01-02T08:07:02.056Z,30.66
2023-01-02T08:08:01.995Z,29.32
2023-01-02T08:09:01.947Z,29.91
2023-01-02T08:10:01.981Z,33.16
2023-01-02T08:11:01.824Z,28.97
2023-01-02T08:12:01.770Z,33.63
2023-01-02T08:13:01.741Z,33.16
2023-01-02T08:14:01.658Z,32.38
2023-01-02T08:15:02.149Z,30.59
2023-01-02T08:16:02.141Z,32.34
2023-01-02T08:17:01.571Z,34.35
2023-01-02T08:18:01.417Z,34.62
2023-01-02T08:19:01.355Z,33.10
2023-01-02T08:20:07.112Z,34.51
2023-01-02T08:21:01.259Z,34.50
2023-01-02T08:22:01.176Z,34.59
2023-01-02T08:23:01.105Z,34.78
2023-01-02T08:24:01.050Z,35.27
2023-01-02T08:25:01.059Z,34.56
2023-01-02T08:26:00.932Z,34.66
2023-01-02T08:27:00.890Z,34.91
2023-01-02T08:28:00.797Z,36.07
2023-01-02T08:29:00.763Z,35.77
2023-01-02T08:30:00.701Z,36.66
2023-01-02T08:31:00.711Z,38.39
2023-01-02T08:32:00.600Z,40.60
2023-01-02T08:33:00.524Z,40.74
2023-01-02T08:34:00.483Z,40.73
2023-01-02T08:35:00.433Z,38.23
2023-01-02T08:36:00.384Z,39.77
2023-01-02T08:38:00.259Z,40.79
2023-01-02T08:39:00.223Z,40.78
2023-01-02T08:40:00.161Z,42.11
2023-01-02T08:41:00.101Z,40.12
2023-01-02T08:42:00.081Z,42.78
2023-01-02T08:43:00.006Z,41.69
2023-01-02T08:43:59.937Z,39.44
2023-01-02T08:44:59.875Z,41.81
2023-01-02T08:45:59.822Z,39.10
2023-01-02T08:46:59.780Z,40.67
2023-01-02T08:47:59.743Z,40.58
2023-01-02T08:48:59.662Z,39.69
2023-01-02T08:49:59.601Z,42.65
2023-01-02T08:50:59.560Z,40.89
2023-01-02T08:51:59.485Z,41.71
2023-01-02T08:52:59.463Z,40.26
2023-01-02T08:53:59.387Z,41.71
2023-01-02T08:54:59.335Z,41.95
2023-01-02T08:55:59.301Z,43.74
2023-01-02T08:56:59.235Z,43.22
2023-01-02T08:57:59.183Z,43.17
2023-01-02T08:58:59.118Z,42.37
2023-01-02T08:59:59.053Z,46.64
2023-01-02T09:00:59.028Z,43.65
2023-01-02T11:32:50.026Z,30.35
2023-01-02T11:38:49.677Z,27.86
2023-01-02T11:39:49.615Z,27.67
2023-01-02T11:40:49.562Z,27.74
2023-01-02T11:41:49.537Z,27.84
2023-01-02T11:42:49.445Z,28.87
2023-01-02T11:43:49.482Z,28.78
2023-01-02T11:44:49.337Z,27.75
2023-01-02T11:45:49.305Z,29.01
2023-01-02T11:46:49.211Z,28.57
2023-01-02T11:47:49.207Z,28.84
2023-01-02T11:48:49.103Z,28.89
2023-01-02T11:49:49.044Z,25.78
2023-01-02T11:50:48.972Z,27.65
2023-01-02T12:32:46.487Z,29.31
2023-01-02T12:33:46.411Z,32.88
2023-01-02T12:34:46.375Z,31.48
2023-01-02T12:35:46.309Z,30.54
2023-01-02T12:36:46.239Z,29.04
2023-01-02T12:37:46.180Z,33.46
2023-01-02T12:38:46.260Z,32.42
2023-01-02T12:39:46.071Z,31.67
2023-01-02T12:40:46.005Z,34.08
2023-01-02T12:42:01.912Z,32.40
2023-01-02T12:42:46.893Z,32.57
2023-01-02T12:43:45.836Z,32.63
2023-01-02T12:44:45.789Z,32.43
2023-01-02T12:45:45.766Z,34.45
2023-01-02T12:46:45.689Z,31.65
2023-01-02T12:47:45.623Z,33.64
2023-01-02T12:48:45.567Z,34.56
2023-01-02T12:49:46.250Z,35.33
2023-01-02T12:50:48.799Z,31.42
2023-01-02T12:51:47.254Z,31.57
2023-01-02T12:52:45.357Z,32.52
2023-01-02T12:53:45.290Z,32.59
2023-01-02T12:54:45.258Z,33.13
2023-01-02T12:55:45.180Z,34.05
2023-01-02T12:56:45.105Z,33.79
2023-01-02T12:57:45.068Z,32.83
2023-01-02T12:58:44.980Z,34.78
2023-01-02T12:59:44.916Z,35.25
2023-01-02T13:00:44.851Z,34.07
2023-01-02T13:01:45.841Z,35.54
2023-01-02T13:02:44.919Z,34.06
2023-01-02T13:03:44.719Z,34.10
2023-01-02T13:04:44.621Z,34.09
2023-01-02T13:05:44.551Z,35.27
2023-01-02T13:06:46.866Z,34.95
2023-01-02T13:07:44.654Z,33.65
2023-01-02T13:08:44.587Z,34.52
2023-01-02T13:09:44.552Z,33.74
2023-01-02T13:10:44.484Z,35.98
2023-01-02T13:11:44.407Z,33.31
2023-01-02T13:12:44.359Z,34.70
2023-01-02T13:13:44.279Z,35.84
2023-01-02T13:14:44.224Z,33.31
2023-01-02T13:15:44.221Z,35.82
2023-01-02T13:16:44.116Z,33.38
2023-01-02T13:17:44.027Z,32.69
2023-01-02T13:19:00.010Z,34.16
2023-01-02T13:19:44.904Z,34.36
2023-01-02T13:20:43.835Z,34.40
2023-01-02T13:21:43.784Z,34.66
2023-01-02T13:22:43.715Z,34.56
2023-01-02T13:23:43.651Z,34.90
2023-01-02T13:24:43.590Z,35.48
2023-01-02T13:25:43.538Z,34.08
2023-01-02T13:26:43.472Z,37.47
2023-01-02T13:27:43.438Z,36.10
2023-01-02T13:28:43.362Z,35.22
2023-01-02T13:29:43.399Z,36.57
2023-01-02T13:30:43.303Z,35.27
2023-01-02T13:31:47.640Z,34.86
2023-01-02T13:32:44.126Z,35.16
2023-01-02T13:33:43.081Z,35.42
2023-01-02T13:34:43.002Z,35.50
2023-01-02T13:35:42.930Z,36.23
2023-01-02T13:36:42.867Z,35.34
2023-01-02T13:37:42.811Z,34.14
2023-01-02T13:38:42.751Z,37.34
2023-01-02T13:39:42.698Z,36.61
2023-01-02T13:40:42.633Z,36.07
2023-01-02T13:41:42.572Z,36.21
2023-01-02T13:42:42.501Z,36.15
2023-01-02T13:43:42.459Z,34.48
2023-01-02T13:44:42.386Z,37.21
2023-01-02T13:45:42.384Z,36.19
2023-01-02T13:47:11.126Z,37.76
2023-01-02T13:47:43.265Z,37.87
2023-01-02T13:48:42.171Z,37.84
2023-01-02T13:49:42.109Z,36.43
2023-01-02T13:50:42.040Z,37.38
2023-01-02T13:51:41.993Z,36.60
2023-01-02T13:52:41.957Z,35.08
2023-01-02T13:53:41.878Z,37.08
2023-01-02T13:54:41.824Z,34.10
2023-01-02T13:55:41.774Z,35.76
2023-01-02T13:56:41.703Z,38.61
2023-01-02T13:57:41.656Z,35.36
2023-01-02T13:58:41.624Z,35.10
2023-01-02T13:59:46.764Z,35.16
2023-01-02T14:00:41.611Z,35.35
2023-01-02T14:01:41.777Z,35.37
2023-01-02T14:02:41.686Z,35.72
2023-01-02T14:03:41.352Z,36.34
2023-01-02T14:04:41.264Z,36.95
2023-01-02T14:05:41.212Z,37.65
2023-01-02T14:06:41.155Z,36.77
2023-01-02T14:07:41.096Z,36.85
2023-01-02T14:08:41.038Z,36.99
2023-01-02T14:09:41.019Z,37.36
2023-01-02T14:10:40.943Z,36.40
2023-01-02T14:11:55.256Z,37.43
2023-01-02T14:12:41.831Z,37.50
2023-01-02T14:13:40.777Z,34.79
2023-01-02T14:14:40.730Z,37.93
2023-01-02T14:15:40.735Z,37.55
2023-01-02T14:16:40.754Z,37.64
2023-01-02T14:17:40.659Z,37.66
2023-01-02T14:18:46.150Z,37.98
2023-01-02T14:19:41.536Z,37.58
2023-01-02T14:20:40.398Z,37.64
2023-01-02T14:21:40.348Z,38.02
2023-01-02T14:22:40.303Z,37.56
2023-01-02T14:23:40.247Z,37.42
2023-01-02T14:24:40.247Z,38.16
2023-01-02T14:25:40.123Z,37.72
2023-01-02T14:26:40.089Z,38.58
2023-01-02T14:27:40.056Z,37.13
2023-01-02T14:28:40.042Z,38.89
2023-01-02T14:29:39.937Z,35.12
2023-01-02T14:30:39.909Z,36.52
2023-01-02T14:31:39.819Z,36.71
2023-01-02T14:32:39.796Z,36.16
2023-01-02T14:33:39.764Z,34.03
2023-01-02T14:34:39.680Z,37.73
2023-01-02T14:35:39.591Z,36.50
2023-01-02T14:36:39.539Z,38.10
2023-01-02T14:37:39.483Z,35.73
2023-01-02T14:38:39.452Z,39.19
2023-01-02T14:39:39.383Z,36.29
2023-01-02T14:40:39.318Z,36.24
2023-01-02T14:41:39.277Z,37.88
2023-01-02T14:42:39.216Z,36.39
2023-01-02T14:43:39.147Z,37.47
2023-01-02T14:44:39.129Z,35.80
2023-01-02T14:45:39.053Z,37.69
2023-01-02T14:46:39.067Z,37.87
2023-01-02T14:48:39.814Z,35.58
2023-01-02T14:50:38.783Z,36.40
2023-01-02T14:51:38.708Z,35.55
2023-01-02T14:52:38.656Z,38.61
2023-01-02T14:53:38.599Z,35.80
2023-01-02T14:54:38.537Z,36.06
2023-01-02T14:55:42.100Z,36.01
2023-01-02T14:56:38.436Z,36.17
2023-01-02T14:57:38.367Z,36.20
2023-01-02T14:58:38.317Z,37.17
2023-01-02T14:59:38.260Z,37.72
2023-01-02T15:00:38.224Z,38.68
2023-01-02T15:01:44.076Z,36.12
2023-01-02T15:02:39.244Z,36.39
2023-01-02T15:03:38.179Z,36.32
2023-01-02T15:04:38.029Z,36.79
2023-01-02T15:05:38.015Z,37.72
2023-01-02T15:06:37.892Z,37.00
2023-01-02T15:07:37.826Z,37.33
2023-01-02T15:08:37.766Z,38.16
2023-01-02T15:09:37.730Z,38.34
2023-01-02T15:10:37.650Z,36.17
2023-01-02T15:11:37.614Z,37.47
2023-01-02T15:12:37.545Z,36.01
2023-01-02T15:14:04.798Z,37.29
2023-01-02T15:14:38.440Z,37.39
2023-01-02T15:15:37.478Z,37.48
2023-01-02T15:16:37.326Z,37.66
2023-01-02T15:17:37.271Z,36.88
2023-01-02T15:18:37.225Z,35.96
2023-01-02T15:19:37.176Z,36.32
2023-01-02T15:20:37.132Z,33.95
2023-01-02T15:21:37.147Z,35.69
2023-01-02T15:22:37.739Z,39.05
2023-01-02T15:23:36.987Z,34.97
2023-01-02T15:24:36.903Z,36.97
2023-01-02T15:25:36.856Z,36.01
2023-01-02T15:26:36.794Z,36.34
2023-01-02T15:27:36.735Z,38.42
2023-01-02T15:28:36.679Z,37.25
2023-01-02T15:29:36.610Z,36.29
2023-01-02T15:30:36.569Z,38.36
2023-01-02T15:31:36.515Z,37.24
2023-01-02T15:32:36.469Z,36.00
2023-01-02T15:33:36.389Z,37.13
2023-01-02T15:34:36.335Z,35.88
2023-01-02T15:35:36.302Z,34.67
2023-01-02T15:36:36.217Z,36.22
2023-01-02T15:37:36.165Z,37.19
2023-01-02T15:38:36.126Z,37.94
2023-01-02T15:39:36.058Z,38.89
2023-01-02T15:40:36.116Z,37.85
2023-01-02T15:41:36.790Z,36.82
2023-01-02T15:42:35.995Z,35.02
2023-01-02T15:43:35.955Z,34.79
2023-01-02T15:44:35.772Z,31.74
2023-01-02T15:45:35.718Z,30.55
2023-01-02T15:46:35.671Z,32.86
2023-01-02T15:47:35.620Z,30.80
2023-01-02T15:48:35.563Z,32.52
2023-01-02T15:49:35.492Z,29.78
2023-01-02T15:50:35.438Z,30.04
2023-01-02T15:51:40.654Z,32.24
2023-01-02T15:52:36.333Z,30.82
2023-01-02T15:53:35.301Z,29.27
2023-01-02T15:54:35.245Z,30.32
2023-01-02T15:55:35.212Z,27.47
2023-01-02T15:56:35.143Z,26.56
2023-01-02T15:57:35.075Z,27.20
2023-01-02T15:58:35.080Z,27.09
2023-01-02T15:59:34.974Z,25.32
2023-01-02T16:00:34.984Z,27.48
2023-01-02T16:01:35.049Z,25.94
2023-01-02T16:02:34.942Z,25.00
2023-01-02T16:04:02.638Z,27.01
2023-01-02T16:04:35.794Z,27.11
2023-01-02T16:05:34.657Z,23.61
2023-01-02T16:06:34.636Z,27.43
2023-01-02T16:07:34.623Z,25.99
2023-01-02T16:08:38.074Z,25.39
2023-01-02T16:09:34.440Z,27.03
2023-01-02T16:10:34.388Z,27.14
2023-01-02T16:11:34.336Z,25.16
2023-01-02T16:12:34.278Z,21.56
2023-01-02T16:13:34.214Z,26.06
2023-01-02T16:14:34.168Z,22.55
2023-01-02T16:15:34.097Z,26.35
2023-01-02T16:16:34.070Z,26.65
2023-01-02T16:17:34.024Z,27.16
2023-01-02T16:18:33.969Z,27.58
2023-01-02T16:19:33.883Z,28.86
2023-01-02T16:20:33.939Z,28.08
2023-01-02T16:21:33.797Z,27.13
2023-01-02T16:22:33.728Z,27.09
2023-01-02T16:23:33.688Z,26.95
2023-01-02T16:24:33.629Z,29.08
2023-01-02T16:25:33.583Z,26.27
2023-01-02T16:26:33.519Z,25.32
2023-01-02T16:27:33.472Z,25.01
2023-01-02T16:28:35.127Z,26.69
2023-01-02T16:29:33.351Z,27.52
2023-01-02T16:30:33.288Z,25.39
2023-01-02T16:31:33.282Z,25.12
2023-01-02T16:32:33.239Z,27.06
2023-01-02T16:33:33.141Z,27.86
2023-01-02T16:34:33.086Z,26.56
2023-01-02T16:35:33.030Z,26.83
2023-01-02T16:36:32.958Z,27.75
2023-01-02T16:37:32.901Z,27.14
2023-01-02T16:38:32.864Z,26.87
2023-01-02T16:39:32.800Z,25.43
2023-01-02T16:40:59.752Z,27.14
2023-01-02T16:41:33.716Z,27.41
2023-01-02T16:42:32.668Z,26.95
2023-01-02T16:43:36.586Z,25.80
2023-01-02T16:44:33.552Z,27.23
2023-01-02T16:45:32.540Z,27.57
2023-01-02T16:46:32.445Z,27.96
2023-01-02T16:47:32.407Z,26.30
2023-01-02T16:48:32.374Z,23.46
2023-01-02T16:49:32.306Z,25.00
2023-01-02T16:50:32.239Z,27.68
2023-01-02T16:51:32.237Z,27.46
2023-01-02T16:52:32.146Z,28.62
2023-01-02T16:53:32.104Z,28.98
2023-01-02T16:54:32.051Z,28.36
2023-01-02T16:55:32.005Z,28.50
2023-01-02T16:56:31.933Z,28.53
2023-01-02T16:57:31.889Z,29.36
2023-01-02T16:58:31.846Z,30.05
2023-01-02T16:59:31.866Z,27.04
2023-01-02T17:00:34.036Z,31.13
2023-01-02T17:01:32.423Z,31.32
2023-01-02T17:02:31.910Z,31.40
2023-01-02T17:03:32.420Z,31.20
2023-01-02T17:04:31.838Z,31.84
2023-01-02T17:05:31.478Z,31.37
2023-01-02T17:06:31.443Z,31.55
2023-01-02T17:07:31.384Z,29.95
2023-01-02T17:08:31.380Z,31.85
2023-01-02T17:09:31.278Z,30.71
2023-01-02T17:10:31.245Z,30.77
2023-01-02T17:11:31.854Z,30.63
2023-01-02T17:12:31.109Z,30.62
2023-01-02T17:13:31.114Z,30.81
2023-01-02T17:14:31.021Z,30.91
2023-01-02T17:15:30.948Z,30.86
2023-01-02T17:16:30.930Z,31.15
2023-01-02T17:17:30.859Z,31.35
2023-01-02T17:18:30.808Z,31.22
2023-01-02T17:19:32.317Z,35.53
2023-01-02T17:20:30.710Z,30.88
2023-01-02T17:21:32.978Z,31.48
2023-01-02T17:22:30.627Z,31.03
2023-01-02T17:23:30.636Z,31.68
2023-01-02T17:24:30.523Z,31.69
2023-01-02T17:25:30.466Z,32.70
2023-01-02T17:26:30.431Z,36.18
2023-01-02T17:27:30.379Z,34.99
2023-01-02T17:28:30.320Z,35.22
2023-01-02T17:29:30.325Z,31.95
2023-01-02T17:30:30.234Z,31.90
2023-01-02T17:31:30.206Z,32.11
2023-01-02T17:32:30.130Z,32.77
2023-01-02T17:33:30.060Z,32.78
2023-01-02T17:34:30.050Z,31.33
2023-01-02T17:35:29.995Z,32.40
2023-01-02T17:36:29.917Z,32.89
2023-01-02T17:37:29.864Z,31.95
2023-01-02T17:38:29.816Z,33.39
2023-01-02T17:39:29.773Z,29.46
2023-01-02T17:40:29.798Z,29.26
2023-01-02T17:41:29.665Z,29.75
2023-01-02T17:42:29.620Z,27.58
2023-01-02T17:43:29.598Z,31.20
2023-01-02T17:44:29.530Z,28.70
2023-01-02T17:45:29.613Z,30.72
2023-01-02T17:47:04.347Z,29.40
2023-01-02T17:47:59.467Z,29.58
2023-01-02T17:48:30.415Z,29.68
2023-01-02T17:49:29.264Z,30.32
2023-01-02T17:50:29.218Z,29.54
2023-01-02T17:51:29.191Z,29.41
2023-01-02T17:52:29.122Z,28.80
2023-01-02T17:53:29.069Z,28.32
2023-01-02T17:54:29.020Z,26.96
2023-01-02T17:55:28.968Z,25.34
2023-01-02T18:27:27.366Z,29.21
2023-01-02T18:28:27.279Z,33.09
2023-01-02T18:30:27.460Z,28.75
2023-01-02T18:31:27.132Z,29.76
2023-01-02T18:32:27.102Z,30.62
2023-01-02T18:33:27.141Z,29.39
2023-01-02T18:36:27.909Z,26.97
2023-01-02T18:37:26.837Z,27.18
2023-01-02T18:38:26.793Z,26.43
2023-01-02T18:39:26.739Z,29.26
2023-01-02T18:40:28.281Z,27.79
2023-01-02T18:41:26.654Z,26.98
2023-01-02T18:42:26.649Z,27.37
2023-01-02T18:43:27.383Z,26.50
2023-01-02T18:45:26.859Z,28.63
2023-01-02T18:46:27.372Z,29.25
2023-01-02T18:47:27.372Z,29.45
2023-01-02T18:48:26.310Z,29.74
2023-01-02T18:49:26.282Z,29.85
2023-01-02T18:50:26.286Z,27.28
2023-01-02T18:51:26.170Z,30.23
2023-01-02T18:52:26.152Z,27.90
2023-01-02T18:53:26.089Z,28.84
2023-01-02T18:54:26.040Z,29.82
2023-01-02T18:55:25.998Z,29.91
2023-01-02T18:56:25.949Z,29.68
2023-01-02T18:57:25.896Z,30.40
2023-01-02T18:58:25.848Z,29.96
2023-01-02T18:59:25.820Z,29.12
2023-01-02T19:00:25.820Z,29.96
2023-01-02T19:01:25.885Z,29.42
2023-01-02T19:02:25.796Z,30.77
2023-01-02T19:03:25.628Z,29.80
2023-01-02T19:04:28.330Z,30.76
2023-01-02T19:05:25.499Z,32.46
2023-01-02T19:06:25.461Z,30.05
2023-01-02T19:07:25.390Z,28.91
2023-01-02T19:08:25.375Z,27.87
2023-01-02T19:09:25.874Z,31.03
2023-01-02T19:10:25.292Z,31.23
2023-01-02T19:11:25.237Z,31.12
2023-01-02T19:12:25.887Z,32.58
2023-01-02T19:13:25.150Z,31.45
2023-01-02T19:14:25.090Z,32.68
2023-01-02T19:15:25.026Z,31.88
2023-01-02T19:16:25.043Z,28.88
2023-01-02T19:17:24.975Z,31.88
2023-01-02T19:18:24.894Z,28.24
2023-01-02T19:19:24.840Z,29.90
2023-01-02T19:20:24.793Z,30.01
2023-01-02T19:21:24.850Z,30.00
2023-01-02T19:22:24.712Z,28.63
2023-01-02T19:23:24.681Z,29.97
2023-01-02T19:24:24.604Z,31.09
2023-01-02T19:25:25.363Z,30.14
2023-01-02T19:26:24.513Z,28.30
2023-01-02T19:27:24.457Z,26.94
2023-01-02T19:28:24.420Z,27.05
2023-01-02T19:29:24.365Z,27.32
2023-01-02T19:30:24.335Z,26.23
2023-01-02T19:31:24.510Z,28.39
2023-01-02T19:32:24.229Z,28.94
2023-01-02T19:33:24.885Z,27.22
2023-01-02T19:34:24.143Z,27.43
2023-01-02T19:35:24.086Z,30.26
2023-01-02T19:36:24.054Z,26.51
2023-01-02T19:37:23.981Z,26.76
2023-01-02T19:38:23.956Z,26.53
2023-01-02T19:39:23.904Z,26.75
2023-01-02T19:40:23.855Z,26.36
2023-01-02T19:41:23.916Z,24.46
2023-01-02T19:42:23.751Z,28.48
2023-01-02T19:43:23.713Z,25.95
2023-01-02T19:44:23.653Z,26.53